Overview Statistics Trail Chart Weather Telemetry Raw packets
 

This is the latest recevied weather packets stored in our database for station/object KN1OBI-13. If no packets are shown the sender has not sent any weather packets the latest 10 day(s).

<< 3 4 5 6 7 8 9 >>
Time Temp. Humidity Pressure Rain* Wind** Luminosity Snow
1788551192 26.11° C 64% 989 hPa 0 mm - - -
1788550592 25° C 64% 989 hPa 0 mm - - -
1788549992 25.56° C 63% 988.9 hPa 0 mm - - -
1788549392 26.11° C 62% 988.9 hPa 0 mm - - -
1788548792 27.22° C 59% 988.7 hPa 0 mm - - -
1788548192 27.22° C 60% 988.8 hPa 0 mm - - -
1788547593 26.11° C 62% 989.1 hPa 0 mm - - -
1788546992 25° C 65% 989.5 hPa 0 mm - - -
1788546392 25.56° C 61% 989.2 hPa 0 mm - - -
1788545793 26.11° C 59% 989.2 hPa 0 mm - - -
1788545192 26.67° C 57% 989.1 hPa 0 mm - - -
1788544592 27.22° C 54% 989.1 hPa 0 mm - - -
1788543992 27.22° C 59% 989 hPa 0 mm - - -
1788543392 27.22° C 58% 989.1 hPa 0 mm - - -
1788542792 27.22° C 59% 989.5 hPa 0 mm - - -
1788542192 26.67° C 59% 989.4 hPa 0 mm - - -
1788541592 26.67° C 57% 989.4 hPa 0 mm - - -
1788540992 26.11° C 60% 989.7 hPa 0 mm - - -
1788540392 26.11° C 65% 989.4 hPa 0 mm - - -
1788539792 25.56° C 66% 989.6 hPa 0 mm - - -
1788539192 26.11° C 69% 989.7 hPa 0 mm - - -
1788538592 26.11° C 67% 989.6 hPa 0 mm - - -
1788537992 26.11° C 69% 989.9 hPa 0 mm - - -
1788537392 26.11° C 66% 989.9 hPa 0 mm - - -
1788536792 25.56° C 68% 990 hPa 0 mm - - -

* Rain latest hour (hover to see other rain measurements)
** Current wind speed in m/s (hover to see current wind gust speed)